Clackamas — WDF6614 — position and weather

sailwx.info

Track history (hours):
 
Tides and Currents Weather Stations Pressure Air Temp Water Temp Dewpoint Dewpoint Depression Visibility Wind Speed Wind Dir Waves Ship Positions

Clackamas

Owner: Port o Portland, Portland, OR. More information available from US FCC via Universal Licensing System and Coast Guard Vessel Documentation Center.

Last reported at 2018-Apr-19 20:55 UTC. Time now 2018-Apr-23 15:12 UTC.
Position N 46°05' W 122°56'.

MMSI: 367476049.

Date/timePositionNaut miles runAvg speedWind from/ knotsBaromVisibWave heightAir tempDewpointWater temp
2018-Apr-19 20:55N 46°05' W 122°56'0 0.0
2018-Apr-19 20:26N 46°05' W 122°56'1 2.7
2018-Apr-19 20:00N 46°05' W 122°54'510.4
2018-Apr-19 19:30N 46°00' W 122°51'4 8.9
2018-Apr-19 19:00N 45°56' W 122°48'5 9.7
2018-Apr-19 18:30N 45°51' W 122°47'14 9.3
2018-Apr-19 16:58N 45°37' W 122°47'3 7.1
2018-Apr-19 16:30N 45°34' W 122°45'1 1.5
2018-Apr-19 15:44N 45°34' W 122°43'0 0.0
2018-Apr-19 15:08N 45°34' W 122°43'0 0.0
2018-Apr-19 14:53N 45°34' W 122°43'0 0.0
2018-Apr-19 14:23N 45°34' W 122°43'0 0.0
2018-Apr-19 13:56N 45°34' W 122°43'0 0.0
2018-Apr-17 16:13N 45°34' W 122°43'0 0.0
2018-Apr-17 15:58N 45°34' W 122°43'0 0.0
2018-Apr-17 15:25N 45°34' W 122°43'0 0.0
2018-Apr-17 14:55N 45°34' W 122°43'0 0.0
2018-Apr-17 14:28N 45°34' W 122°43'0 0.0
2018-Apr-17 13:58N 45°34' W 122°43'0 0.0
2018-Apr-17 13:28N 45°34' W 122°43'0 0.0
2018-Apr-17 12:52N 45°34' W 122°43'0 0.0
2018-Apr-17 12:28N 45°34' W 122°43'0 0.0
2018-Apr-17 11:58N 45°34' W 122°43'0 0.0
2018-Apr-17 10:46N 45°34' W 122°43'0 0.0
2018-Apr-17 10:16N 45°34' W 122°43'0 0.0
2018-Apr-17 09:58N 45°34' W 122°43'0 0.0
2018-Apr-17 09:25N 45°34' W 122°43'0 0.0
2018-Apr-17 08:49N 45°34' W 122°43'0 0.0
2018-Apr-17 08:25N 45°34' W 122°43'0 0.0
2018-Apr-17 07:58N 45°34' W 122°43'0 0.0
2018-Apr-17 07:28N 45°34' W 122°43'0 0.0
2018-Apr-17 06:40N 45°34' W 122°43'0 0.0
2018-Apr-17 06:25N 45°34' W 122°43'0 0.0
2018-Apr-17 05:19N 45°34' W 122°43'0 0.0
2018-Apr-17 04:58N 45°34' W 122°43'0 0.0
2018-Apr-17 04:19N 45°34' W 122°43'0 0.0
2018-Apr-17 03:58N 45°34' W 122°43'0 0.0
2018-Apr-17 03:28N 45°34' W 122°43'0 0.0
2018-Apr-17 02:58N 45°34' W 122°43'0 0.0
2018-Apr-17 02:28N 45°34' W 122°43'0 0.0
2018-Apr-17 01:52N 45°34' W 122°43'0 0.0
2018-Apr-17 01:25N 45°34' W 122°43'0 0.0
2018-Apr-17 00:55N 45°34' W 122°43'0 0.0
2018-Apr-17 00:13N 45°34' W 122°43'0 0.0
2018-Apr-16 23:58N 45°34' W 122°43'0 0.0
2018-Apr-16 23:07N 45°34' W 122°43'0 0.0
2018-Apr-16 22:58N 45°34' W 122°43'0 0.0
2018-Apr-16 22:16N 45°34' W 122°43'0 0.0
2018-Apr-16 21:58N 45°34' W 122°43'0 0.0
2018-Apr-16 21:25N 45°34' W 122°43'0 0.0
2018-Apr-16 20:52N 45°34' W 122°43'0 0.0
2018-Apr-16 20:28N 45°34' W 122°43'0 0.0
2018-Apr-16 19:58N 45°34' W 122°43'0 0.0
2018-Apr-16 19:28N 45°34' W 122°43'0 0.0
2018-Apr-16 18:49N 45°34' W 122°43'0 0.0
2018-Apr-16 18:28N 45°34' W 122°43'0 0.2
2018-Apr-16 18:00N 45°34' W 122°43'0 0.0
2018-Apr-16 17:30N 45°34' W 122°43'0 0.0
2018-Apr-16 17:00N 45°34' W 122°43'1 3.0
2018-Apr-16 16:30N 45°33' W 122°42'0 0.2
2018-Apr-16 16:00N 45°33' W 122°42'2 4.1
2018-Apr-16 15:30N 45°34' W 122°44'  
Track history (hours):
 
Tides and Currents Weather Stations Pressure Air Temp Water Temp Dewpoint Dewpoint Depression Visibility Wind Speed Wind Dir Waves Ship Positions

Clackamas

Owner: Port o Portland, Portland, OR. More information available from US FCC via Universal Licensing System and Coast Guard Vessel Documentation Center.

Last reported at 2018-Apr-19 20:55 UTC. Time now 2018-Apr-23 15:12 UTC.
Position N 46°05' W 122°56'.

MMSI: 367476049.

Date/timePositionNaut miles runAvg speedWind from/ knotsBaromVisibWave heightAir tempDewpointWater temp
2018-Apr-19 20:55N 46°05' W 122°56'0 0.0
2018-Apr-19 20:26N 46°05' W 122°56'1 2.7
2018-Apr-19 20:00N 46°05' W 122°54'510.4
2018-Apr-19 19:30N 46°00' W 122°51'4 8.9
2018-Apr-19 19:00N 45°56' W 122°48'5 9.7
2018-Apr-19 18:30N 45°51' W 122°47'14 9.3
2018-Apr-19 16:58N 45°37' W 122°47'3 7.1
2018-Apr-19 16:30N 45°34' W 122°45'1 1.5
2018-Apr-19 15:44N 45°34' W 122°43'0 0.0
2018-Apr-19 15:08N 45°34' W 122°43'0 0.0
2018-Apr-19 14:53N 45°34' W 122°43'0 0.0
2018-Apr-19 14:23N 45°34' W 122°43'0 0.0
2018-Apr-19 13:56N 45°34' W 122°43'0 0.0
2018-Apr-17 16:13N 45°34' W 122°43'0 0.0
2018-Apr-17 15:58N 45°34' W 122°43'0 0.0
2018-Apr-17 15:25N 45°34' W 122°43'0 0.0
2018-Apr-17 14:55N 45°34' W 122°43'0 0.0
2018-Apr-17 14:28N 45°34' W 122°43'0 0.0
2018-Apr-17 13:58N 45°34' W 122°43'0 0.0
2018-Apr-17 13:28N 45°34' W 122°43'0 0.0
2018-Apr-17 12:52N 45°34' W 122°43'0 0.0
2018-Apr-17 12:28N 45°34' W 122°43'0 0.0
2018-Apr-17 11:58N 45°34' W 122°43'0 0.0
2018-Apr-17 10:46N 45°34' W 122°43'0 0.0
2018-Apr-17 10:16N 45°34' W 122°43'0 0.0
2018-Apr-17 09:58N 45°34' W 122°43'0 0.0
2018-Apr-17 09:25N 45°34' W 122°43'0 0.0
2018-Apr-17 08:49N 45°34' W 122°43'0 0.0
2018-Apr-17 08:25N 45°34' W 122°43'0 0.0
2018-Apr-17 07:58N 45°34' W 122°43'0 0.0
2018-Apr-17 07:28N 45°34' W 122°43'0 0.0
2018-Apr-17 06:40N 45°34' W 122°43'0 0.0
2018-Apr-17 06:25N 45°34' W 122°43'0 0.0
2018-Apr-17 05:19N 45°34' W 122°43'0 0.0
2018-Apr-17 04:58N 45°34' W 122°43'0 0.0
2018-Apr-17 04:19N 45°34' W 122°43'0 0.0
2018-Apr-17 03:58N 45°34' W 122°43'0 0.0
2018-Apr-17 03:28N 45°34' W 122°43'0 0.0
2018-Apr-17 02:58N 45°34' W 122°43'0 0.0
2018-Apr-17 02:28N 45°34' W 122°43'0 0.0
2018-Apr-17 01:52N 45°34' W 122°43'0 0.0
2018-Apr-17 01:25N 45°34' W 122°43'0 0.0
2018-Apr-17 00:55N 45°34' W 122°43'0 0.0
2018-Apr-17 00:13N 45°34' W 122°43'0 0.0
2018-Apr-16 23:58N 45°34' W 122°43'0 0.0
2018-Apr-16 23:07N 45°34' W 122°43'0 0.0
2018-Apr-16 22:58N 45°34' W 122°43'0 0.0
2018-Apr-16 22:16N 45°34' W 122°43'0 0.0
2018-Apr-16 21:58N 45°34' W 122°43'0 0.0
2018-Apr-16 21:25N 45°34' W 122°43'0 0.0
2018-Apr-16 20:52N 45°34' W 122°43'0 0.0
2018-Apr-16 20:28N 45°34' W 122°43'0 0.0
2018-Apr-16 19:58N 45°34' W 122°43'0 0.0
2018-Apr-16 19:28N 45°34' W 122°43'0 0.0
2018-Apr-16 18:49N 45°34' W 122°43'0 0.0
2018-Apr-16 18:28N 45°34' W 122°43'0 0.2
2018-Apr-16 18:00N 45°34' W 122°43'0 0.0
2018-Apr-16 17:30N 45°34' W 122°43'0 0.0
2018-Apr-16 17:00N 45°34' W 122°43'1 3.0
2018-Apr-16 16:30N 45°33' W 122°42'0 0.2
2018-Apr-16 16:00N 45°33' W 122°42'2 4.1
2018-Apr-16 15:30N 45°34' W 122°44'  

Dump ship's entire track history